CheckWX is a tool to help pilots better visualize weather data.  It is not intended as a substitute for an official pre-flight weather briefing.

05:23:14 UTC

KHCR METAR
Heber City Municipal - Russ McDonald Field Airport
Heber, Utah, USA
Current

28 mins ago

KHCR 200455Z AUTO 00000KT 10SM SCT060 SCT065 M12/M16 A2984 RMK AO2
Observed
Feb-20 @ 04:55 UTC
Visibility
16,093 meters
Flight Rules
VFR
Cloud Levels
  • Scattered at 6,000' AGL
  • Scattered at 6,500' AGL
Temperature
-12°C / 10°F
Dewpoint
-16°C / 3°F
Humidity
72%
Altimeter
29.84" Hg
Pressure
1010.52 hPa
Previous

48 mins ago

KHCR 200435Z AUTO 06004KT 10SM SCT060 M13/M17 A2984 RMK AO2
Observed
Feb-20 @ 04:35 UTC
Wind
  • 060° at 4 KTS
Visibility
16,093 meters
Flight Rules
VFR
Cloud Levels
  • Scattered at 6,000' AGL
Temperature
-13°C / 9°F
Dewpoint
-17°C / 1°F
Humidity
72%
Altimeter
29.84" Hg
Pressure
1010.52 hPa
Previous

1 hour ago

KHCR 200415Z AUTO 34006KT 10SM CLR M12/M16 A2984 RMK AO2
Observed
Feb-20 @ 04:15 UTC
Wind
  • 340° at 6 KTS
Visibility
16,093 meters
Flight Rules
VFR
Cloud Levels
  • Clear skies
Temperature
-12°C / 10°F
Dewpoint
-16°C / 3°F
Humidity
72%
Altimeter
29.84" Hg
Pressure
1010.52 hPa